createdAt,value
2022-10-04T00:02:14.701Z,4.75
2022-10-04T00:05:09.173Z,5.00
2022-10-04T00:07:44.535Z,3.78
2022-10-04T00:10:21.569Z,5.15
2022-10-04T00:12:55.730Z,3.90
2022-10-04T00:15:27.124Z,4.35
2022-10-04T00:18:03.911Z,5.32
2022-10-04T00:20:53.470Z,5.03
2022-10-04T00:23:25.042Z,4.07
2022-10-04T00:25:54.358Z,4.70
2022-10-04T00:28:38.509Z,4.47
2022-10-04T00:31:30.031Z,4.25
2022-10-04T00:34:03.531Z,4.82
2022-10-04T00:36:41.611Z,3.90
2022-10-04T00:39:08.360Z,4.22
2022-10-04T00:41:48.020Z,5.18
2022-10-04T00:44:22.654Z,4.30
2022-10-04T00:46:51.711Z,4.03
2022-10-04T00:49:22.913Z,4.57
2022-10-04T00:51:59.857Z,4.40
2022-10-04T00:54:38.602Z,4.65
2022-10-04T00:57:25.342Z,4.05
2022-10-04T00:59:55.646Z,4.63
2022-10-04T01:03:13.360Z,4.32
2022-10-04T01:05:46.050Z,5.15
2022-10-04T01:08:22.813Z,4.63
2022-10-04T01:10:57.831Z,4.85
2022-10-04T01:14:01.841Z,4.57
2022-10-04T01:16:36.221Z,4.53
2022-10-04T01:19:21.928Z,4.18
2022-10-04T01:22:35.289Z,4.95
2022-10-04T01:25:03.247Z,4.57
2022-10-04T01:27:37.535Z,4.95
2022-10-04T01:30:12.396Z,4.57
2022-10-04T01:32:40.095Z,3.92
2022-10-04T01:35:09.603Z,4.65
2022-10-04T01:37:40.246Z,4.43
2022-10-04T01:40:09.279Z,4.07
2022-10-04T01:42:54.971Z,4.55
2022-10-04T01:45:28.477Z,4.70
2022-10-04T01:48:05.238Z,4.72
2022-10-04T01:50:36.979Z,4.00
2022-10-04T01:53:25.662Z,4.50
2022-10-04T01:55:55.904Z,5.43
2022-10-04T01:58:33.997Z,4.65
2022-10-04T02:01:08.563Z,3.75
2022-10-04T02:03:41.835Z,5.03
2022-10-04T02:06:10.812Z,4.75
2022-10-04T02:08:49.443Z,4.95
2022-10-04T02:11:21.387Z,4.57
2022-10-04T02:13:52.468Z,5.15
2022-10-04T02:16:21.563Z,4.57
2022-10-04T02:18:50.838Z,4.50
2022-10-04T02:21:18.889Z,4.85
2022-10-04T02:23:47.193Z,5.90
2022-10-04T02:26:14.192Z,5.15
2022-10-04T02:28:41.202Z,5.20
2022-10-04T02:31:28.371Z,5.18
2022-10-04T02:33:58.254Z,5.10
2022-10-04T02:36:29.381Z,4.60
2022-10-04T02:39:30.933Z,4.38
2022-10-04T02:42:02.985Z,5.00
2022-10-04T02:44:44.567Z,5.57
2022-10-04T02:47:19.989Z,5.63
2022-10-04T02:50:00.162Z,4.13
2022-10-04T02:52:36.728Z,4.68
2022-10-04T02:55:30.158Z,5.15
2022-10-04T02:57:59.303Z,4.23
2022-10-04T03:00:29.478Z,5.32
2022-10-04T03:03:17.106Z,4.88
2022-10-04T03:06:05.061Z,4.53
2022-10-04T03:08:35.898Z,4.82
2022-10-04T03:11:04.855Z,4.97
2022-10-04T03:13:32.332Z,5.75
2022-10-04T03:15:59.264Z,4.70
2022-10-04T03:18:26.117Z,4.68
2022-10-04T03:20:53.745Z,4.60
2022-10-04T03:23:21.411Z,5.35
2022-10-04T03:25:59.689Z,5.78
2022-10-04T03:28:28.328Z,6.30
2022-10-04T03:30:57.087Z,5.70
2022-10-04T03:33:26.551Z,5.15
2022-10-04T03:35:56.419Z,5.57
2022-10-04T03:38:25.370Z,4.63
2022-10-04T03:41:01.492Z,5.22
2022-10-04T03:43:35.307Z,6.20
2022-10-04T03:46:03.414Z,6.10
2022-10-04T03:48:44.749Z,5.05
2022-10-04T03:51:18.653Z,4.90
2022-10-04T03:54:01.637Z,5.50
2022-10-04T03:56:33.469Z,5.57
2022-10-04T03:59:04.115Z,5.70
2022-10-04T04:01:49.388Z,5.63
2022-10-04T04:07:14.335Z,4.78
2022-10-04T04:09:52.898Z,5.85
2022-10-04T04:12:28.524Z,5.07
2022-10-04T04:14:55.557Z,5.50
2022-10-04T04:17:45.637Z,5.00
2022-10-04T04:20:34.614Z,5.93
2022-10-04T04:23:24.217Z,5.65
2022-10-04T04:26:11.825Z,5.10
2022-10-04T04:29:22.390Z,3.72
2022-10-04T04:32:12.196Z,3.83
2022-10-04T04:35:00.743Z,4.75
2022-10-04T04:37:27.762Z,4.68
2022-10-04T04:39:54.822Z,6.15
2022-10-04T04:42:39.470Z,5.22
2022-10-04T04:45:36.454Z,4.80
2022-10-04T04:48:07.243Z,4.78
2022-10-04T04:50:37.375Z,5.18
2022-10-04T04:53:18.028Z,4.28
2022-10-04T04:56:03.998Z,4.43
2022-10-04T04:58:35.417Z,3.90
2022-10-04T05:01:09.156Z,3.95
2022-10-04T05:03:36.324Z,4.40
2022-10-04T05:06:04.931Z,4.13
2022-10-04T05:08:37.317Z,5.03
2022-10-04T05:11:08.385Z,4.40
2022-10-04T05:13:41.147Z,3.63
2022-10-04T05:16:16.561Z,3.80
2022-10-04T05:18:43.616Z,3.83
2022-10-04T05:21:28.429Z,4.35
2022-10-04T05:23:58.187Z,3.47
2022-10-04T05:26:28.995Z,4.35
2022-10-04T05:29:25.002Z,4.70
2022-10-04T05:31:56.005Z,3.63
2022-10-04T05:34:28.733Z,3.97
2022-10-04T05:37:34.216Z,5.15
2022-10-04T05:40:13.158Z,3.55
2022-10-04T05:42:47.774Z,3.85
2022-10-04T05:45:20.660Z,4.22
2022-10-04T05:47:56.008Z,4.20
2022-10-04T05:50:28.362Z,3.35
2022-10-04T05:53:24.264Z,4.50
2022-10-04T05:56:16.781Z,4.00
2022-10-04T05:59:20.755Z,4.28
2022-10-04T06:02:08.805Z,4.18
2022-10-04T06:04:49.699Z,4.88
2022-10-04T06:07:35.258Z,3.60
2022-10-04T06:10:26.104Z,4.15
2022-10-04T06:13:16.654Z,4.03
2022-10-04T06:16:12.555Z,5.00
2022-10-04T06:19:03.823Z,4.60
2022-10-04T06:21:53.838Z,4.20
2022-10-04T06:24:35.161Z,4.13
2022-10-04T06:27:32.716Z,4.20
2022-10-04T06:30:06.973Z,4.15
2022-10-04T06:32:52.362Z,4.78
2022-10-04T06:35:49.046Z,4.50
2022-10-04T06:38:46.956Z,4.38
2022-10-04T06:41:20.906Z,4.88
2022-10-04T06:44:02.962Z,4.45
2022-10-04T06:46:42.295Z,5.45
2022-10-04T06:49:19.955Z,3.92
2022-10-04T06:52:21.118Z,4.65
2022-10-04T06:55:31.909Z,4.88
2022-10-04T06:58:36.444Z,5.32
2022-10-04T07:03:51.605Z,4.72
2022-10-04T07:06:25.809Z,3.73
2022-10-04T07:08:59.544Z,5.25
2022-10-04T07:14:20.379Z,3.85
2022-10-04T07:16:56.406Z,4.55
2022-10-04T07:19:26.191Z,5.00
2022-10-04T07:22:08.151Z,4.57
2022-10-04T07:25:07.253Z,5.10
2022-10-04T07:28:15.773Z,4.43
2022-10-04T07:30:54.381Z,4.65
2022-10-04T07:33:24.900Z,4.70
2022-10-04T07:36:00.674Z,4.30
2022-10-04T07:38:31.425Z,4.47
2022-10-04T07:41:03.651Z,4.50
2022-10-04T07:43:34.974Z,5.03
2022-10-04T07:46:27.638Z,5.40
2022-10-04T07:48:55.450Z,4.03
2022-10-04T07:51:34.729Z,3.78
2022-10-04T07:54:23.595Z,4.00
2022-10-04T07:56:59.677Z,4.60
2022-10-04T07:59:44.406Z,4.45
2022-10-04T08:02:38.543Z,3.88
2022-10-04T08:08:14.046Z,3.58
2022-10-04T08:10:57.402Z,3.35
2022-10-04T08:13:41.949Z,4.22
2022-10-04T08:16:43.632Z,5.03
2022-10-04T08:19:14.057Z,3.10
2022-10-04T08:22:05.189Z,3.75
2022-10-04T08:24:53.655Z,3.83
2022-10-04T08:28:14.547Z,3.53
2022-10-04T08:30:56.030Z,4.97
2022-10-04T08:33:55.494Z,3.70
2022-10-04T08:36:54.845Z,3.40
2022-10-04T08:39:45.984Z,4.32
2022-10-04T08:42:33.086Z,3.58
2022-10-04T08:45:58.395Z,4.40
2022-10-04T08:48:59.510Z,3.38
2022-10-04T08:51:51.131Z,3.63
2022-10-04T08:54:35.387Z,3.45
2022-10-04T08:57:15.087Z,2.95
2022-10-04T09:00:13.448Z,3.13
2022-10-04T09:02:55.148Z,3.38
2022-10-04T09:05:34.100Z,3.70
2022-10-04T09:08:46.575Z,3.95
2022-10-04T09:11:19.361Z,3.45
2022-10-04T09:14:14.939Z,3.53
2022-10-04T09:16:48.445Z,3.85
2022-10-04T09:19:34.028Z,3.30
2022-10-04T09:22:17.168Z,3.55
2022-10-04T09:25:02.480Z,3.38
2022-10-04T09:28:06.692Z,2.95
2022-10-04T09:30:52.149Z,3.40
2022-10-04T09:33:38.871Z,3.22
2022-10-04T09:36:25.876Z,3.33
2022-10-04T09:39:30.689Z,3.55
2022-10-04T09:42:39.360Z,3.20
2022-10-04T09:45:27.440Z,3.03
2022-10-04T09:48:15.160Z,3.20
2022-10-04T09:50:59.325Z,2.60
2022-10-04T09:53:45.018Z,3.08
2022-10-04T09:56:45.723Z,3.33
2022-10-04T09:59:22.672Z,2.92
2022-10-04T10:02:08.176Z,2.88
2022-10-04T10:05:02.147Z,2.60
2022-10-04T10:07:47.305Z,2.53
2022-10-04T10:10:55.736Z,2.60
2022-10-04T10:13:58.576Z,2.72
2022-10-04T10:17:00.930Z,2.60
2022-10-04T10:20:08.514Z,2.95
2022-10-04T10:22:53.455Z,2.90
2022-10-04T10:25:25.871Z,3.08
2022-10-04T10:28:19.153Z,4.40
2022-10-04T10:30:51.688Z,3.90
2022-10-04T10:34:02.130Z,3.60
2022-10-04T10:36:51.410Z,3.10
2022-10-04T10:39:39.830Z,2.92
2022-10-04T10:42:44.175Z,2.33
2022-10-04T10:48:01.710Z,3.00
2022-10-04T10:51:06.080Z,3.75
2022-10-04T10:54:21.135Z,3.38
2022-10-04T10:56:52.550Z,3.15
2022-10-04T10:59:56.568Z,4.22
2022-10-04T11:03:13.321Z,3.05
2022-10-04T11:06:04.374Z,3.03
2022-10-04T11:09:22.147Z,3.20
2022-10-04T11:12:39.227Z,2.83
2022-10-04T11:15:38.419Z,3.33
2022-10-04T11:18:42.050Z,2.35
2022-10-04T11:21:28.031Z,2.67
2022-10-04T11:24:26.149Z,2.45
2022-10-04T11:27:11.306Z,2.25
2022-10-04T11:29:58.594Z,2.15
2022-10-04T11:32:40.233Z,2.28
2022-10-04T11:35:36.812Z,2.03
2022-10-04T11:38:35.598Z,2.63
2022-10-04T11:41:30.120Z,2.78
2022-10-04T11:44:15.821Z,2.80
2022-10-04T11:46:48.364Z,2.70
2022-10-04T11:49:43.283Z,3.83
2022-10-04T11:53:03.266Z,2.25
2022-10-04T11:56:19.364Z,2.25
2022-10-04T11:58:59.796Z,3.10
2022-10-04T12:01:47.587Z,2.55
2022-10-04T12:04:18.061Z,2.70
2022-10-04T12:07:25.285Z,2.55
2022-10-04T12:10:17.964Z,2.70
2022-10-04T12:13:05.096Z,2.58
2022-10-04T12:15:58.109Z,2.72
2022-10-04T12:18:55.486Z,2.75
2022-10-04T12:21:22.334Z,2.70
2022-10-04T12:24:09.133Z,2.33
2022-10-04T12:26:35.763Z,3.20
2022-10-04T12:29:24.369Z,2.70
2022-10-04T12:32:18.084Z,2.55
2022-10-04T12:34:56.768Z,2.63
2022-10-04T12:37:46.567Z,2.35
2022-10-04T12:40:33.095Z,2.83
2022-10-04T12:42:59.843Z,2.75
2022-10-04T12:46:10.839Z,2.20
2022-10-04T12:49:16.317Z,2.67
2022-10-04T12:52:10.925Z,2.67
2022-10-04T12:54:56.062Z,2.40
2022-10-04T12:57:49.558Z,1.75
2022-10-04T13:00:22.747Z,2.85
2022-10-04T13:03:04.517Z,2.13
2022-10-04T13:05:48.335Z,2.28
2022-10-04T13:08:53.205Z,2.05
2022-10-04T13:11:35.886Z,2.00
2022-10-04T13:14:28.233Z,2.83
2022-10-04T13:19:58.075Z,1.92
2022-10-04T13:22:56.968Z,1.73
2022-10-04T13:25:38.916Z,1.77
2022-10-04T13:28:20.585Z,1.83
2022-10-04T13:30:55.545Z,1.70
2022-10-04T13:33:30.121Z,2.10
2022-10-04T13:36:17.191Z,1.83
2022-10-04T13:39:07.360Z,1.38
2022-10-04T13:41:52.304Z,1.58
2022-10-04T13:44:37.215Z,1.77
2022-10-04T13:47:22.861Z,1.85
2022-10-04T13:50:08.300Z,1.52
2022-10-04T13:53:12.357Z,1.80
2022-10-04T13:56:07.586Z,2.42
2022-10-04T13:58:52.670Z,1.52
2022-10-04T14:01:53.183Z,1.48
2022-10-04T14:04:38.592Z,1.35
2022-10-04T14:07:24.056Z,1.92
2022-10-04T14:10:00.817Z,1.90
2022-10-04T14:12:48.900Z,1.63
2022-10-04T14:15:42.298Z,1.88
2022-10-04T14:18:14.882Z,1.20
2022-10-04T14:21:19.809Z,1.73
2022-10-04T14:24:02.588Z,1.50
2022-10-04T14:26:43.528Z,1.45
2022-10-04T14:29:48.090Z,1.88
2022-10-04T14:32:47.280Z,2.42
2022-10-04T14:35:35.095Z,1.50
2022-10-04T14:38:33.753Z,1.48
2022-10-04T14:41:22.131Z,1.30
2022-10-04T14:44:06.943Z,1.65
2022-10-04T14:46:55.819Z,1.70
2022-10-04T14:49:47.910Z,1.48
2022-10-04T14:52:18.228Z,1.45
2022-10-04T14:54:56.352Z,1.65
2022-10-04T14:57:56.844Z,1.50
2022-10-04T15:00:29.795Z,1.52
2022-10-04T15:03:29.368Z,1.80
2022-10-04T15:06:10.829Z,1.98
2022-10-04T15:09:15.322Z,1.55
2022-10-04T15:15:14.352Z,2.60
2022-10-04T15:17:56.285Z,1.60
2022-10-04T15:20:32.805Z,1.63
2022-10-04T15:23:16.779Z,1.40
2022-10-04T15:25:47.918Z,1.23
2022-10-04T15:28:33.697Z,1.80
2022-10-04T15:31:12.259Z,1.88
2022-10-04T15:33:59.899Z,1.40
2022-10-04T15:37:01.639Z,1.45
2022-10-04T15:39:57.307Z,1.67
2022-10-04T15:42:29.486Z,1.98
2022-10-04T15:44:57.268Z,1.60
2022-10-04T15:47:54.505Z,1.83
2022-10-04T15:50:50.202Z,2.47
2022-10-04T15:53:26.804Z,1.88
2022-10-04T15:56:27.155Z,2.17
2022-10-04T15:59:18.995Z,1.80
2022-10-04T16:02:23.356Z,1.90
2022-10-04T16:05:24.559Z,1.85
2022-10-04T16:08:09.615Z,1.27
2022-10-04T16:11:00.330Z,1.50
2022-10-04T16:13:53.648Z,2.20
2022-10-04T16:16:39.720Z,1.65
2022-10-04T16:19:33.606Z,1.85
2022-10-04T16:22:14.769Z,1.80
2022-10-04T16:24:58.461Z,1.77
2022-10-04T16:27:28.113Z,1.40
2022-10-04T16:30:27.384Z,1.58
2022-10-04T16:33:26.861Z,1.42
2022-10-04T16:36:09.349Z,2.08
2022-10-04T16:39:07.252Z,1.38
2022-10-04T16:41:36.863Z,1.88
2022-10-04T16:44:04.799Z,1.85
2022-10-04T16:46:46.071Z,2.22
2022-10-04T16:49:31.165Z,1.77
2022-10-04T16:52:16.551Z,1.70
2022-10-04T16:55:03.966Z,1.83
2022-10-04T16:57:30.997Z,1.55
2022-10-04T17:00:37.984Z,1.70
2022-10-04T17:03:10.044Z,1.60
2022-10-04T17:05:48.594Z,2.65
2022-10-04T17:08:15.347Z,1.95
2022-10-04T17:10:59.664Z,2.60
2022-10-04T17:13:55.566Z,2.42
2022-10-04T17:16:57.262Z,2.17
2022-10-04T17:19:42.542Z,2.70
2022-10-04T17:22:38.503Z,2.40
2022-10-04T17:25:24.496Z,2.38
2022-10-04T17:28:09.990Z,2.38
2022-10-04T17:31:15.579Z,2.55
2022-10-04T17:33:56.081Z,2.40
2022-10-04T17:36:38.941Z,2.63
2022-10-04T17:39:26.711Z,2.55
2022-10-04T17:42:16.668Z,2.80
2022-10-04T17:45:15.466Z,2.50
2022-10-04T17:48:15.557Z,2.38
2022-10-04T17:51:21.032Z,3.05
2022-10-04T17:54:23.966Z,2.30
2022-10-04T17:56:59.193Z,2.15
2022-10-04T17:59:31.218Z,3.08
2022-10-04T18:02:20.278Z,2.25
2022-10-04T18:04:59.017Z,2.20
2022-10-04T18:07:33.068Z,2.42
2022-10-04T18:10:14.512Z,3.03
2022-10-04T18:13:00.791Z,2.35
2022-10-04T18:15:33.965Z,2.55
2022-10-04T18:18:24.694Z,3.35
2022-10-04T18:20:54.592Z,2.28
2022-10-04T18:23:29.120Z,2.63
2022-10-04T18:26:04.407Z,2.35
2022-10-04T18:28:34.516Z,2.60
2022-10-04T18:31:18.242Z,2.75
2022-10-04T18:33:48.348Z,3.00
2022-10-04T18:36:27.393Z,2.88
2022-10-04T18:39:13.778Z,2.05
2022-10-04T18:41:57.958Z,2.95
2022-10-04T18:44:43.976Z,2.90
2022-10-04T18:47:33.967Z,3.25
2022-10-04T18:50:13.563Z,2.83
2022-10-04T18:52:55.675Z,2.50
2022-10-04T18:55:29.818Z,3.38
2022-10-04T18:58:43.343Z,2.60
2022-10-04T19:01:50.419Z,2.95
2022-10-04T19:04:48.651Z,3.30
2022-10-04T19:07:17.419Z,2.65
2022-10-04T19:09:58.977Z,3.05
2022-10-04T19:12:42.486Z,3.03
2022-10-04T19:15:30.513Z,4.15
2022-10-04T19:18:40.054Z,3.65
2022-10-04T19:21:35.032Z,2.95
2022-10-04T19:24:12.673Z,3.00
2022-10-04T19:26:47.583Z,3.08
2022-10-04T19:29:51.694Z,2.85
2022-10-04T19:32:38.516Z,3.00
2022-10-04T19:35:11.342Z,3.10
2022-10-04T19:38:05.174Z,3.00
2022-10-04T19:40:53.967Z,2.78
2022-10-04T19:43:20.903Z,3.67
2022-10-04T19:46:28.066Z,3.60
2022-10-04T19:48:54.886Z,3.22
2022-10-04T19:51:34.478Z,3.42
2022-10-04T19:54:15.945Z,2.90
2022-10-04T19:56:47.387Z,2.90
2022-10-04T19:59:40.657Z,3.30
2022-10-04T20:02:11.961Z,2.70
2022-10-04T20:04:39.202Z,3.38
2022-10-04T20:07:20.464Z,3.75
2022-10-04T20:09:56.832Z,3.25
2022-10-04T20:12:41.374Z,3.33
2022-10-04T20:15:17.153Z,3.05
2022-10-04T20:17:45.956Z,3.13
2022-10-04T20:20:38.587Z,2.90
2022-10-04T20:23:10.053Z,2.70
2022-10-04T20:25:49.784Z,2.80
2022-10-04T20:28:28.701Z,2.80
2022-10-04T20:31:00.220Z,2.60
2022-10-04T20:33:33.083Z,3.65
2022-10-04T20:36:02.722Z,3.30
2022-10-04T20:38:59.281Z,3.33
2022-10-04T20:41:28.756Z,3.08
2022-10-04T20:44:03.889Z,3.20
2022-10-04T20:46:39.959Z,2.80
2022-10-04T20:49:18.594Z,2.88
2022-10-04T20:51:49.730Z,3.28
2022-10-04T20:54:18.194Z,3.30
2022-10-04T20:56:50.305Z,3.28
2022-10-04T20:59:18.556Z,3.05
2022-10-04T21:02:04.912Z,2.72
2022-10-04T21:04:49.927Z,4.07
2022-10-04T21:07:22.190Z,3.60
2022-10-04T21:09:50.108Z,3.45
2022-10-04T21:12:39.480Z,3.33
2022-10-04T21:15:20.690Z,3.47
2022-10-04T21:18:09.551Z,3.00
2022-10-04T21:20:52.161Z,3.30
2022-10-04T21:23:33.798Z,3.83
2022-10-04T21:26:21.973Z,3.30
2022-10-04T21:28:53.594Z,3.95
2022-10-04T21:31:20.376Z,3.08
2022-10-04T21:33:47.542Z,3.30
2022-10-04T21:36:14.468Z,3.55
2022-10-04T21:38:41.201Z,2.83
2022-10-04T21:41:08.145Z,3.10
2022-10-04T21:43:35.187Z,2.80
2022-10-04T21:46:02.103Z,3.20
2022-10-04T21:48:28.890Z,3.03
2022-10-04T21:50:56.385Z,3.67
2022-10-04T21:53:23.243Z,3.35
2022-10-04T21:55:50.158Z,3.47
2022-10-04T21:58:16.978Z,3.65
2022-10-04T22:00:43.956Z,3.25
2022-10-04T22:03:12.118Z,3.10
2022-10-04T22:05:39.177Z,3.15
2022-10-04T22:08:06.220Z,3.08
2022-10-04T22:10:34.076Z,3.40
2022-10-04T22:13:00.894Z,3.10
2022-10-04T22:15:28.688Z,3.00
2022-10-04T22:17:57.233Z,3.15
2022-10-04T22:20:25.620Z,3.33
2022-10-04T22:22:53.957Z,3.03
2022-10-04T22:25:22.537Z,3.25
2022-10-04T22:27:51.813Z,3.10
2022-10-04T22:30:23.567Z,3.25
2022-10-04T22:32:51.095Z,3.50
2022-10-04T22:35:20.219Z,3.20
2022-10-04T22:37:48.678Z,3.88
2022-10-04T22:40:19.972Z,3.50
2022-10-04T22:42:51.162Z,3.60
2022-10-04T22:45:27.803Z,3.22
2022-10-04T22:47:57.501Z,2.80
2022-10-04T22:50:27.578Z,3.70
2022-10-04T22:52:54.530Z,3.35
2022-10-04T22:55:21.335Z,3.58
2022-10-04T22:57:48.540Z,3.17
2022-10-04T23:00:15.731Z,3.10
2022-10-04T23:02:42.773Z,3.55
2022-10-04T23:05:15.064Z,3.60
2022-10-04T23:07:43.212Z,3.13
2022-10-04T23:10:12.154Z,3.35
2022-10-04T23:12:40.647Z,3.33
2022-10-04T23:15:08.055Z,3.15
2022-10-04T23:17:38.522Z,3.30
2022-10-04T23:20:20.256Z,3.80
2022-10-04T23:22:49.615Z,4.13
2022-10-04T23:25:23.228Z,3.65
2022-10-04T23:30:19.903Z,4.22
2022-10-04T23:32:53.274Z,3.65
2022-10-04T23:35:23.587Z,3.05
2022-10-04T23:37:52.381Z,4.03
2022-10-04T23:40:22.881Z,3.38
2022-10-04T23:42:52.940Z,3.67
2022-10-04T23:45:22.380Z,3.85
2022-10-04T23:47:55.313Z,3.55
2022-10-04T23:50:32.821Z,2.80
2022-10-04T23:53:04.441Z,3.67
2022-10-04T23:55:38.736Z,3.35
2022-10-04T23:58:21.071Z,4.18
